METAR Reports From Nearby Airports

 

KLUD - Decatur, Texas, USA
Distance from Wildwood: IKA 5mi, 8km
Päivitetty: Dec 04, 2021 12:55am
Selkeätä
Selkeätä
 Tuulen suunta E
Tuuli: E 10 mph , 17 km/h
Lämpötila: 64°F , 18°C
Kastepiste: 63°F , 17°C
Kosteus: 94%
Ilmanpaine: 29.97 inHg , 1014.9 hPa
Clouds: Selkeätä
Visibility: 7 miles , 11 km
2021/12/04 06:55 KLUD 040655Z AUTO 17009KT 7SM CLR 18/17 A2997 RMK AO2 T01770165
KXBP - Bridgeport, Texas, USA
Distance from Wildwood: LLO 11mi, 18km
Päivitetty: Dec 04, 2021 12:55am
Partly Cloudy
Partly Cloudy
 Tuulen suunta E
Tuuli: E 7 mph , 11 km/h
Lämpötila: 66°F , 19°C
Kastepiste: 63°F , 17°C
Kosteus: 88%
Ilmanpaine: 29.97 inHg , 1014.9 hPa
Clouds: Partly Cloudy
Visibility: 10 miles , 16 km
Cloud details: Partly Cloudy 12000 ft
2021/12/04 06:55 KXBP 040655Z AUTO 19006KT 10SM SCT120 19/17 A2997 RMK AO2 LTG DSNT S AND SW T01910171
 
K0F2 - Bowie, Texas, USA
Distance from Wildwood: PLU 24mi, 39km
Päivitetty: Dec 04, 2021 12:55am
Mist, Puolipilvistä
Mist, Puolipilvistä
 Tuulen suunta KA
Tuuli: KA 3 mph , 6 km/h
Lämpötila: 61°F , 16°C
Kastepiste: 61°F , 16°C
Kosteus: 100%
Ilmanpaine: 29.97 inHg , 1014.9 hPa
Yhteenveto: Mist
Clouds: Partly Cloudy
Visibility: 4 miles , 6 km
Cloud details: Partly Cloudy 12000 ft
2021/12/04 06:55 K0F2 040655Z AUTO 14003KT 4SM BR SCT120 16/16 A2997 RMK AO2 T01600156
KDTO - Denton, Texas, USA
Distance from Wildwood: I 27mi, 44km
Päivitetty: Dec 04, 2021 12:53am
Mist, Few clouds
Mist, Few clouds
 Tuulen suunta E
Tuuli: E 3 mph , 6 km/h
Lämpötila: 59°F , 15°C
Kastepiste: 59°F , 15°C
Kosteus: 100%
Ilmanpaine: 29.99 inHg , 1015.6 hPa
Yhteenveto: Mist
Clouds: Few Clouds
Visibility: 2 miles , 3 km
Cloud details: Few Clouds 12000 ft
2021/12/04 06:53 KDTO 040653Z AUTO 19003KT 2SM BR FEW120 15/15 A2999 RMK AO2 SLP151 T01500150
 
KAFW - Ft Worth/Allianc, Texas, USA
Distance from Wildwood: KA 29mi, 46km
Päivitetty: Dec 04, 2021 12:53am
Mostly Cloudy
Mostly Cloudy
 Tuulen suunta ELO
Tuuli: ELO 9 mph , 15 km/h
Lämpötila: 64°F , 18°C
Kastepiste: 63°F , 17°C
Kosteus: 94%
Ilmanpaine: 29.97 inHg , 1014.9 hPa
Clouds: Mostly Cloudy
Visibility: 10 miles , 16 km
Cloud details: Partly Cloudy 2400 ft
Mostly Cloudy 25000 ft
2021/12/04 06:53 KAFW 040653Z 20008KT 10SM SCT024 BKN250 18/17 A2997 RMK AO2 LTG DSNT W SLP141 FRQ LTGIC DSNT SW CB DSNT SW-W MOV E T01830172
KFTW - Fort Worth, Texas, USA
Distance from Wildwood: EKA 34mi, 55km
Päivitetty: Dec 04, 2021 12:53am
Selkeätä
Selkeätä
 Tuulen suunta E
Tuuli: E 9 mph , 15 km/h
Lämpötila: 64°F , 18°C
Kastepiste: 63°F , 17°C
Kosteus: 94%
Ilmanpaine: 29.97 inHg , 1014.9 hPa
Clouds: Selkeätä
Visibility: 10 miles , 16 km
2021/12/04 06:53 KFTW 040653Z 18008KT 10SM CLR 18/17 A2997 RMK AO2 LTG DSNT W SLP142 T01780172
 
KNFW - Fort Worth Nas, Texas, USA
Distance from Wildwood: EKA 36mi, 58km
Päivitetty: Dec 04, 2021 12:52am
Thunderstorm, Few clouds
Thunderstorm, Few clouds
 Tuulen suunta E
Tuuli: E 6 mph , 9 km/h
Ilmanpaine: 29.98 inHg , 1015.2 hPa
Yhteenveto: Thunderstorm
Clouds: Few Clouds
Visibility: 10 miles , 16 km
Cloud details: Few Clouds 12000 ft
2021/12/04 06:52 KNFW 040652Z 19005KT 10SM TS FEW120 A2998 RMK AO2 TSB40 SLP137 CHINO S VISNO S $
KGLE - Gainesville, Texas, USA
Distance from Wildwood: KO 38mi, 61km
Päivitetty: Dec 04, 2021 12:55am
Fog, Vaihetelvaa
Fog, Vaihetelvaa
 Tuulen suunta calm
Tuuli: Tyyntä
Lämpötila: 59°F , 15°C
Kastepiste: 59°F , 15°C
Kosteus: 100%
Ilmanpaine: 30.00 inHg , 1015.9 hPa
Yhteenveto: Fog
Clouds: Vaihetelvaa
Visibility: 1/4 mile , 0.4 km
Cloud details: Vaihetelvaa 300 ft
2021/12/04 06:55 KGLE 040655Z AUTO 00000KT 1/4SM FG OVC003 15/15 A3000 RMK AO2 T01500148
 
KMWL - Mineral Wells, Texas, USA
Distance from Wildwood: LO 41mi, 65km
Päivitetty: Dec 04, 2021 1:03am
Nearby thunderstorm, Vaihetelvaa
Nearby thunderstorm, Vaihetelvaa
 Tuulen suunta EKA
Tuuli: EKA 9 mph , 15 km/h
Lämpötila: 64°F , 18°C
Kastepiste: 61°F , 16°C
Kosteus: 88%
Ilmanpaine: 29.98 inHg , 1015.2 hPa
Yhteenveto: Nearby Thunderstorm
Clouds: Vaihetelvaa
Visibility: 10 miles , 16 km
Cloud details: Vaihetelvaa 10000 ft
2021/12/04 07:03 KMWL 040703Z AUTO 16008KT 10SM VCTS OVC100 18/16 A2998 RMK AO2 LTG DSNT SE-W RAE0656 TSE0657 P0000 T01780161
KDFW - Dallas/Ft Worth, Texas, USA
Distance from Wildwood: IKA 45mi, 73km
Päivitetty: Dec 04, 2021 12:53am
Partly Cloudy
Partly Cloudy
 Tuulen suunta E
Tuuli: E 7 mph , 11 km/h
Lämpötila: 64°F , 18°C
Kastepiste: 63°F , 17°C
Kosteus: 94%
Ilmanpaine: 29.98 inHg , 1015.2 hPa
Clouds: Partly Cloudy
Visibility: 10 miles , 16 km
Cloud details: Few Clouds 1000 ft
Few Clouds 12000 ft
Partly Cloudy 25000 ft
2021/12/04 06:53 KDFW 040653Z 18006KT 10SM FEW010 FEW120 SCT250 18/17 A2998 RMK AO2 SLP144 T01780167